Time;durP1;ratioP1;P1;durP2;ratioP2;P2;SDS_P1;SDS_P2;PMS_P1;PMS_P2;Temp;Humidity;BMP_temperature;BMP_pressure;BME280_temperature;BME280_humidity;BME280_pressure;Samples;Min_cycle;Max_cycle;Signal;HPM_P1;HPM_P2
2023/11/13 00:00:02;;;;;;;;;;;12.90;73.90;;;8.73;100.00;95199.25;5013252;28;20368;-50
2023/11/13 00:02:28;;;;;;;;;;;12.90;73.30;;;8.74;100.00;95191.03;4999022;28;20385;-51
2023/11/13 00:04:54;;;;;;;;;;;12.90;73.40;;;8.78;100.00;95172.72;5013315;28;20031;-51
2023/11/13 00:07:21;;;;;;;;;;;12.90;73.50;;;8.82;100.00;95157.84;5013185;28;21538;-49
2023/11/13 00:09:47;;;;;;;;;;;13.00;73.60;;;8.85;100.00;95153.88;4990154;28;19908;-49
2023/11/13 00:12:12;;;;;;;;;;;13.00;73.70;;;8.87;100.00;95139.28;5013216;28;19913;-49
2023/11/13 00:14:38;;;;;;;;;;;13.00;73.80;;;8.86;100.00;95136.88;4993832;28;19913;-51
2023/11/13 00:17:04;;;;;;;;;;;13.10;73.70;;;8.85;100.00;95149.34;5007654;28;19917;-49
2023/11/13 00:19:30;;;;;;;;;;;13.00;73.70;;;8.84;100.00;95146.94;5011359;28;20007;-52
2023/11/13 00:21:56;;;;;;;;;;;13.10;73.60;;;8.82;100.00;95147.22;4998770;28;20425;-51
2023/11/13 00:24:21;;;;;;;;;;;13.00;73.60;;;8.84;100.00;95160.22;5013253;28;19915;-55
2023/11/13 00:26:48;;;;;;;;;;;13.00;73.70;;;8.84;100.00;95142.47;5008418;28;19909;-53
2023/11/13 00:29:16;;;;;;;;;;;13.00;73.60;;;8.87;100.00;95155.22;5012438;28;19916;-52
2023/11/13 00:31:41;;;;;;;;;;;13.00;73.60;;;8.90;100.00;95157.34;5009270;28;19909;-54
2023/11/13 00:34:07;;;;;;;;;;;13.10;73.60;;;8.90;100.00;95170.63;5010504;28;19920;-54
2023/11/13 00:36:33;;;;;;;;;;;13.10;73.70;;;8.94;100.00;95155.75;5012947;28;19913;-53
2023/11/13 00:38:59;;;;;;;;;;;13.10;73.70;;;8.93;100.00;95175.41;5007368;28;19912;-52
2023/11/13 00:41:27;;;;;;;;;;;13.20;73.90;;;8.98;100.00;95172.75;5011803;28;19962;-51
2023/11/13 00:43:53;;;;;;;;;;;13.10;73.80;;;9.01;100.00;95174.88;5008286;28;19957;-55
2023/11/13 00:46:19;;;;;;;;;;;13.20;73.90;;;9.04;100.00;95178.88;5005517;28;19944;-55
2023/11/13 00:48:44;;;;;;;;;;;13.30;73.90;;;9.06;100.00;95179.41;5012765;28;19909;-51
2023/11/13 00:51:10;;;;;;;;;;;13.30;73.80;;;9.10;100.00;95177.03;5007519;28;19909;-54
2023/11/13 00:53:39;;;;;;;;;;;13.40;73.80;;;9.06;100.00;95173.28;5012769;28;20398;-53
2023/11/13 00:56:06;;;;;;;;;;;13.40;73.60;;;9.11;100.00;95181.25;4986288;28;19914;-51
2023/11/13 00:58:35;;;;;;;;;;;13.40;73.60;;;9.11;100.00;95178.59;4989412;28;19913;-54
2023/11/13 01:01:02;;;;;;;;;;;13.40;73.50;;;9.10;100.00;95167.19;4992347;28;19909;-52
2023/11/13 01:03:28;;;;;;;;;;;13.50;73.50;;;9.13;100.00;95171.19;4990541;28;20390;-51
2023/11/13 01:05:54;;;;;;;;;;;13.50;73.50;;;9.17;100.00;95174.88;4992800;28;19964;-52
2023/11/13 01:08:20;;;;;;;;;;;13.50;73.60;;;9.19;100.00;95178.88;4992016;28;19960;-49
2023/11/13 01:10:46;;;;;;;;;;;13.50;73.50;;;9.20;100.00;95161.88;4992292;28;19949;-51
2023/11/13 01:13:12;;;;;;;;;;;13.50;73.40;;;9.25;100.00;95169.06;4992488;28;20494;-55
2023/11/13 01:15:38;;;;;;;;;;;13.60;73.40;;;9.24;100.00;95162.13;4991946;28;20295;-52
2023/11/13 01:18:04;;;;;;;;;;;13.60;73.30;;;9.26;100.00;95165.31;4991125;28;19909;-54
2023/11/13 01:20:29;;;;;;;;;;;13.60;73.20;;;9.23;100.00;95174.63;4990972;28;19949;-51
2023/11/13 01:22:55;;;;;;;;;;;13.70;73.30;;;9.29;100.00;95174.63;4991295;28;19909;-51
2023/11/13 01:25:21;;;;;;;;;;;13.60;73.20;;;9.31;100.00;95180.47;4992358;28;20345;-52
2023/11/13 01:27:47;;;;;;;;;;;13.60;73.10;;;9.30;100.00;95161.06;4991568;28;20368;-53
2023/11/13 01:30:13;;;;;;;;;;;13.70;73.10;;;9.31;100.00;95175.16;4993514;28;19960;-54
2023/11/13 01:32:39;;;;;;;;;;;13.70;73.00;;;9.33;100.00;95173.81;4990625;28;19914;-52
2023/11/13 01:35:05;;;;;;;;;;;13.70;73.00;;;9.35;100.00;95169.06;4992289;28;19909;-49
2023/11/13 01:37:31;;;;;;;;;;;13.70;72.90;;;9.33;100.00;95173.81;4991343;28;19916;-50
2023/11/13 01:39:57;;;;;;;;;;;13.70;72.90;;;9.32;100.00;95168.78;4987850;28;19952;-55
2023/11/13 01:42:23;;;;;;;;;;;13.70;72.80;;;9.31;100.00;95170.66;4991977;28;19945;-50
2023/11/13 01:44:50;;;;;;;;;;;13.70;72.80;;;9.32;100.00;95168.78;4997888;28;19916;-49
2023/11/13 01:47:17;;;;;;;;;;;13.80;72.90;;;9.35;100.00;95173.56;5011346;28;19909;-49
2023/11/13 01:49:44;;;;;;;;;;;13.80;72.90;;;9.38;100.00;95187.13;4991435;28;19909;-51
2023/11/13 01:52:12;;;;;;;;;;;13.80;72.80;;;9.41;100.00;95191.91;5009286;28;19916;-49
2023/11/13 01:54:38;;;;;;;;;;;13.80;72.80;;;9.47;100.00;95200.69;4993901;28;19912;-52
2023/11/13 01:57:08;;;;;;;;;;;13.80;72.80;;;9.52;100.00;95199.88;5001656;28;19964;-50
2023/11/13 01:59:38;;;;;;;;;;;13.80;72.80;;;9.53;100.00;95206.78;5010994;28;20246;-54
2023/11/13 02:02:05;;;;;;;;;;;13.90;72.70;;;9.52;100.00;95203.31;5006477;28;19909;-49
2023/11/13 02:04:31;;;;;;;;;;;13.90;72.60;;;9.54;100.00;95205.72;4993997;28;19947;-54
2023/11/13 02:06:58;;;;;;;;;;;13.90;72.50;;;9.49;100.00;95202.03;4993743;28;20446;-51
2023/11/13 02:09:25;;;;;;;;;;;13.90;72.50;;;9.53;100.00;95182.84;5006981;28;20350;-50
2023/11/13 02:11:51;;;;;;;;;;;13.90;72.60;;;9.53;100.00;95189.00;5011083;28;19913;-52
2023/11/13 02:14:18;;;;;;;;;;;13.90;72.40;;;9.53;100.00;95181.00;4987787;28;19941;-49
2023/11/13 02:16:43;;;;;;;;;;;13.90;72.50;;;9.50;100.00;95170.91;5011037;28;19916;-52
2023/11/13 02:19:16;;;;;;;;;;;13.90;72.40;;;9.49;100.00;95172.78;5010395;28;20293;-54
2023/11/13 02:21:42;;;;;;;;;;;13.90;72.40;;;9.50;100.00;95170.91;4999750;28;19913;-51
2023/11/13 02:24:10;;;;;;;;;;;13.90;72.40;;;9.52;100.00;95179.41;5010878;28;19909;-56
2023/11/13 02:26:36;;;;;;;;;;;13.90;72.50;;;9.53;100.00;95164.25;4988916;28;19916;-49
2023/11/13 02:29:02;;;;;;;;;;;13.90;72.40;;;9.56;100.00;95167.19;4990392;28;19920;-49
2023/11/13 02:31:28;;;;;;;;;;;13.90;72.30;;;9.54;100.00;95163.19;5010090;28;20027;-55
2023/11/13 02:33:54;;;;;;;;;;;13.90;72.30;;;9.55;100.00;95160.25;5006292;28;19959;-48
2023/11/13 02:36:19;;;;;;;;;;;13.90;72.30;;;9.60;100.00;95162.91;5005406;28;19909;-50
2023/11/13 02:38:47;;;;;;;;;;;13.90;72.30;;;9.60;100.00;95165.56;5005195;28;19915;-50
2023/11/13 02:41:13;;;;;;;;;;;13.90;72.20;;;9.63;100.00;95173.00;5010385;28;20427;-49
2023/11/13 02:43:39;;;;;;;;;;;14.00;72.30;;;9.66;100.00;95169.81;5008159;28;20264;-49
2023/11/13 02:46:05;;;;;;;;;;;14.00;72.20;;;9.69;100.00;95177.25;5008387;28;19913;-54
2023/11/13 02:48:32;;;;;;;;;;;14.00;72.10;;;9.72;100.00;95175.94;5010788;28;19909;-51
2023/11/13 02:50:58;;;;;;;;;;;14.10;72.80;;;9.72;100.00;95175.94;5005061;28;20728;-53
2023/11/13 02:53:24;;;;;;;;;;;14.10;72.00;;;9.75;100.00;95170.09;4992954;28;19921;-49
2023/11/13 02:55:51;;;;;;;;;;;14.10;71.90;;;9.78;100.00;95179.38;5006718;28;19913;-51
2023/11/13 02:58:18;;;;;;;;;;;14.20;71.90;;;9.81;100.00;95163.69;5004454;28;20364;-52
2023/11/13 03:00:44;;;;;;;;;;;14.20;71.60;;;9.83;100.00;95163.41;5010206;28;19909;-49
2023/11/13 03:03:10;;;;;;;;;;;14.20;71.60;;;9.82;100.00;95162.63;5004920;28;20330;-52
2023/11/13 03:05:36;;;;;;;;;;;14.20;71.60;;;9.81;100.00;95146.91;5013508;28;19909;-49
2023/11/13 03:08:02;;;;;;;;;;;14.20;71.40;;;9.79;100.00;95149.06;5010016;28;19984;-50
2023/11/13 03:10:28;;;;;;;;;;;14.20;71.30;;;9.79;100.00;95141.06;5014030;28;20727;-49
2023/11/13 03:12:53;;;;;;;;;;;14.30;71.30;;;9.78;100.00;95144.78;5014305;28;19982;-49
2023/11/13 03:15:19;;;;;;;;;;;14.20;71.20;;;9.81;100.00;95122.97;5009956;28;19909;-49
2023/11/13 03:17:45;;;;;;;;;;;14.20;71.10;;;9.78;100.00;95124.31;5014266;28;20004;-49
2023/11/13 03:20:12;;;;;;;;;;;14.20;71.00;;;9.77;100.00;95111.28;5008902;28;19925;-51
2023/11/13 03:22:38;;;;;;;;;;;14.20;71.00;;;9.76;100.00;95126.44;5008015;28;19915;-51
2023/11/13 03:25:04;;;;;;;;;;;14.20;71.00;;;9.79;100.00;95133.88;5014195;28;20398;-49
2023/11/13 03:27:30;;;;;;;;;;;14.20;71.00;;;9.81;100.00;95139.75;5005410;28;19913;-51
2023/11/13 03:29:58;;;;;;;;;;;14.20;71.00;;;9.84;100.00;95131.22;5013921;28;19909;-49
2023/11/13 03:32:25;;;;;;;;;;;14.20;71.00;;;9.84;100.00;95120.59;5008620;28;19913;-50
2023/11/13 03:34:51;;;;;;;;;;;14.20;71.00;;;9.88;100.00;95124.28;5013913;28;20003;-51
2023/11/13 03:37:16;;;;;;;;;;;14.20;71.00;;;9.89;100.00;95114.44;5013437;28;19915;-54
2023/11/13 03:39:42;;;;;;;;;;;14.20;70.90;;;9.92;100.00;95135.19;5008772;28;19909;-49
2023/11/13 03:42:09;;;;;;;;;;;14.30;70.80;;;9.96;100.00;95149.53;5013874;28;20237;-54
2023/11/13 03:44:35;;;;;;;;;;;14.30;70.70;;;9.95;100.00;95147.94;5009923;28;19920;-51
2023/11/13 03:47:00;;;;;;;;;;;14.30;70.60;;;9.92;100.00;95151.16;5013762;28;20283;-50
2023/11/13 03:49:26;;;;;;;;;;;14.20;70.40;;;9.87;100.00;95151.16;5012949;28;19955;-52
2023/11/13 03:51:53;;;;;;;;;;;14.30;70.50;;;9.89;100.00;95151.69;5008450;28;20303;-51
2023/11/13 03:54:20;;;;;;;;;;;14.20;70.40;;;9.88;100.00;95134.94;5013412;28;20295;-50
2023/11/13 03:56:45;;;;;;;;;;;14.20;70.50;;;9.87;100.00;95159.13;5004051;28;20446;-49
2023/11/13 03:59:11;;;;;;;;;;;14.20;70.60;;;9.88;100.00;95166.06;5009340;28;20001;-52
2023/11/13 04:01:37;;;;;;;;;;;14.10;70.50;;;9.86;100.00;95171.63;5011395;28;20367;-49
2023/11/13 04:04:04;;;;;;;;;;;14.10;70.50;;;9.86;100.00;95179.63;5010487;28;19919;-51
2023/11/13 04:06:30;;;;;;;;;;;14.10;70.50;;;9.84;100.00;95192.41;5013456;28;20004;-49
2023/11/13 04:08:55;;;;;;;;;;;14.00;70.60;;;9.82;100.00;95191.06;5008976;28;20016;-49
2023/11/13 04:11:21;;;;;;;;;;;14.00;70.60;;;9.77;100.00;95194.53;5013261;28;19928;-49
2023/11/13 04:13:47;;;;;;;;;;;13.90;70.60;;;9.70;100.00;95197.47;5009867;28;20393;-49
2023/11/13 04:16:13;;;;;;;;;;;13.80;70.70;;;9.62;100.00;95202.53;5010013;28;19955;-53
2023/11/13 04:18:39;;;;;;;;;;;13.80;70.80;;;9.56;100.00;95190.28;5012893;28;19915;-52
2023/11/13 04:21:05;;;;;;;;;;;13.80;70.90;;;9.50;100.00;95198.28;4996426;23;19930;-54
2023/11/13 04:23:31;;;;;;;;;;;13.70;70.90;;;9.46;100.00;95193.75;4975119;28;20450;-52
2023/11/13 04:25:57;;;;;;;;;;;13.60;70.90;;;9.39;100.00;95175.41;4973213;28;19932;-51
2023/11/13 04:28:28;;;;;;;;;;;13.60;71.10;;;9.34;100.00;95177.28;4975008;28;19945;-55
2023/11/13 04:30:54;;;;;;;;;;;13.60;71.20;;;9.35;100.00;95179.69;4967141;28;19944;-50
2023/11/13 04:33:20;;;;;;;;;;;13.50;71.20;;;9.35;100.00;95176.22;4953955;28;19961;-53
2023/11/13 04:35:46;;;;;;;;;;;13.50;71.30;;;9.29;100.00;95166.66;4955391;28;19910;-51
2023/11/13 04:38:12;;;;;;;;;;;13.40;71.30;;;9.29;100.00;95174.63;4953057;28;19990;-50
2023/11/13 04:40:37;;;;;;;;;;;13.40;71.40;;;9.20;100.00;95175.16;4968645;28;19917;-52
2023/11/13 04:43:03;;;;;;;;;;;13.40;71.50;;;9.20;100.00;95182.34;4972687;28;20380;-50
2023/11/13 04:45:29;;;;;;;;;;;13.40;71.60;;;9.17;100.00;95190.84;4968218;28;20292;-52
2023/11/13 04:47:55;;;;;;;;;;;13.40;71.70;;;9.08;100.00;95190.56;4969309;28;19910;-48
2023/11/13 04:50:21;;;;;;;;;;;13.30;71.70;;;9.08;100.00;95190.56;4968383;28;20385;-51
2023/11/13 04:52:47;;;;;;;;;;;13.30;71.80;;;9.03;100.00;95198.53;4973470;28;19918;-52
2023/11/13 04:55:13;;;;;;;;;;;13.30;71.90;;;9.06;100.00;95192.69;4973180;28;19963;-51
2023/11/13 04:57:39;;;;;;;;;;;13.30;72.00;;;9.09;100.00;95188.69;4968541;28;19948;-53
2023/11/13 05:00:07;;;;;;;;;;;13.30;72.10;;;9.06;100.00;95184.72;4973517;28;19910;-54
2023/11/13 05:02:37;;;;;;;;;;;13.30;72.10;;;9.02;100.00;95184.47;4969184;28;19909;-50
2023/11/13 05:05:11;;;;;;;;;;;13.20;72.10;;;9.07;100.00;95180.22;4973224;28;19917;-50
2023/11/13 05:07:38;;;;;;;;;;;13.30;72.20;;;9.08;100.00;95176.47;4972494;28;19910;-54
2023/11/13 05:10:05;;;;;;;;;;;13.30;72.30;;;9.08;100.00;95182.59;4970493;28;19945;-50
2023/11/13 05:12:31;;;;;;;;;;;13.20;72.10;;;9.00;100.00;95183.91;4965303;28;19968;-53
2023/11/13 05:14:57;;;;;;;;;;;13.30;72.20;;;9.00;100.00;95177.81;4970455;28;19911;-49
2023/11/13 05:17:23;;;;;;;;;;;13.20;72.20;;;9.02;100.00;95173.84;4972652;28;19914;-50
2023/11/13 05:19:49;;;;;;;;;;;13.20;72.20;;;9.00;100.00;95185.78;4969223;28;19910;-49
2023/11/13 05:22:15;;;;;;;;;;;13.20;72.30;;;8.98;100.00;95187.88;4971429;28;20024;-50
2023/11/13 05:24:41;;;;;;;;;;;13.20;72.30;;;8.97;100.00;95191.63;4973065;28;19910;-52
2023/11/13 05:27:06;;;;;;;;;;;13.20;72.30;;;8.97;100.00;95192.41;4968299;28;19914;-52
2023/11/13 05:29:32;;;;;;;;;;;13.20;72.50;;;8.95;100.00;95191.88;4972926;28;19917;-51
2023/11/13 05:31:58;;;;;;;;;;;13.20;72.40;;;8.93;100.00;95191.34;4970429;28;19937;-51
2023/11/13 05:34:24;;;;;;;;;;;13.20;72.50;;;8.94;100.00;95186.84;4972571;28;19917;-49
2023/11/13 05:36:50;;;;;;;;;;;13.20;72.50;;;8.96;100.00;95198.78;4972901;28;20383;-49
2023/11/13 05:39:16;;;;;;;;;;;13.20;72.60;;;8.92;100.00;95197.69;4967495;28;19913;-51
2023/11/13 05:41:42;;;;;;;;;;;13.20;72.60;;;8.93;100.00;95195.84;4972653;28;19917;-53
2023/11/13 05:44:08;;;;;;;;;;;13.10;72.50;;;8.92;100.00;95199.56;4968450;28;20256;-49
2023/11/13 05:46:34;;;;;;;;;;;13.10;72.60;;;8.94;100.00;95200.13;4966297;28;19910;-48
2023/11/13 05:48:59;;;;;;;;;;;13.10;72.60;;;8.90;100.00;95199.84;4971961;28;19913;-51
2023/11/13 05:51:25;;;;;;;;;;;13.10;72.50;;;8.88;100.00;95193.19;4968446;28;19910;-48
2023/11/13 05:53:51;;;;;;;;;;;13.10;72.50;;;8.89;100.00;95194.78;4972407;28;19914;-51
2023/11/13 05:56:18;;;;;;;;;;;13.10;72.50;;;8.88;100.00;95195.84;4967575;28;19914;-49
2023/11/13 05:58:44;;;;;;;;;;;13.10;72.60;;;8.85;100.00;95201.69;4971813;28;20434;-50
2023/11/13 06:01:09;;;;;;;;;;;13.10;72.60;;;8.80;100.00;95207.78;4972246;28;19910;-53
2023/11/13 06:03:35;;;;;;;;;;;13.10;72.60;;;8.76;100.00;95202.19;4967487;28;19910;-48
2023/11/13 06:06:01;;;;;;;;;;;13.10;72.60;;;8.73;100.00;95199.25;4972319;28;19910;-53
2023/11/13 06:08:27;;;;;;;;;;;13.10;72.60;;;8.72;100.00;95200.34;4968575;28;19948;-49
2023/11/13 06:10:52;;;;;;;;;;;13.00;72.70;;;8.73;100.00;95201.91;4972372;28;19968;-50
2023/11/13 06:13:18;;;;;;;;;;;13.00;72.70;;;8.68;100.00;95209.84;4969444;28;19936;-51
2023/11/13 06:15:44;;;;;;;;;;;13.00;72.70;;;8.64;100.00;95214.09;4968236;28;19910;-51
2023/11/13 06:18:10;;;;;;;;;;;13.00;72.70;;;8.61;100.00;95212.75;4971484;28;19909;-48
2023/11/13 06:20:36;;;;;;;;;;;12.90;72.70;;;8.60;100.00;95221.78;4967255;28;19925;-49
2023/11/13 06:23:02;;;;;;;;;;;12.90;72.70;;;8.56;100.00;95215.41;4972008;28;19910;-53
2023/11/13 06:25:28;;;;;;;;;;;12.90;72.80;;;8.57;100.00;95217.78;4956833;28;20320;-52
2023/11/13 06:27:56;;;;;;;;;;;12.90;72.80;;;8.59;100.00;95209.59;4969574;28;20275;-48
2023/11/13 06:30:23;;;;;;;;;;;12.90;72.90;;;8.60;100.00;95226.31;4966571;28;20288;-50
2023/11/13 06:32:49;;;;;;;;;;;12.90;72.90;;;8.58;100.00;95223.91;4958961;28;20326;-51
2023/11/13 06:35:16;;;;;;;;;;;12.90;73.00;;;8.61;100.00;95233.22;4966953;28;19993;-53
2023/11/13 06:37:42;;;;;;;;;;;12.90;73.10;;;8.64;100.00;95228.16;4960927;28;19981;-50
2023/11/13 06:40:09;;;;;;;;;;;12.90;73.20;;;8.66;100.00;95235.88;4952405;28;19914;-53
2023/11/13 06:42:36;;;;;;;;;;;12.90;73.20;;;8.66;100.00;95226.06;4966456;28;19909;-48
2023/11/13 06:45:02;;;;;;;;;;;12.90;73.20;;;8.63;100.00;95239.84;4965700;28;19910;-51
2023/11/13 06:47:30;;;;;;;;;;;12.90;73.20;;;8.65;100.00;95239.59;4964383;28;26867;-49
2023/11/13 06:49:56;;;;;;;;;;;12.90;73.10;;;8.64;100.00;95243.31;4960494;28;19941;-52
2023/11/13 06:52:24;;;;;;;;;;;12.90;73.10;;;8.61;100.00;95249.13;4963262;28;19958;-53
2023/11/13 06:54:50;;;;;;;;;;;12.90;73.10;;;8.61;100.00;95246.47;4938761;28;19921;-51
2023/11/13 06:57:16;;;;;;;;;;;12.90;73.20;;;8.60;100.00;95250.22;4955476;28;19910;-52
2023/11/13 06:59:42;;;;;;;;;;;12.90;73.10;;;8.56;100.00;95260.56;4970950;28;19909;-52
2023/11/13 07:02:08;;;;;;;;;;;12.90;73.10;;;8.60;100.00;95263.47;4959849;28;20384;-53
2023/11/13 07:04:34;;;;;;;;;;;12.90;73.20;;;8.63;100.00;95258.44;4971038;28;20011;-51
2023/11/13 07:07:02;;;;;;;;;;;12.90;73.30;;;8.70;100.00;95266.97;4953192;28;19909;-51
2023/11/13 07:09:27;;;;;;;;;;;12.90;73.30;;;8.75;100.00;95266.19;4968658;28;19932;-53
2023/11/13 07:11:53;;;;;;;;;;;12.90;73.30;;;8.74;100.00;95254.78;4970979;28;20455;-50
2023/11/13 07:14:19;;;;;;;;;;;13.00;73.40;;;8.79;100.00;95248.69;4966306;28;20285;-50
2023/11/13 07:16:46;;;;;;;;;;;13.00;74.30;;;8.82;100.00;95234.09;4953471;28;19916;-53
2023/11/13 07:19:14;;;;;;;;;;;13.10;73.60;;;8.88;100.00;95248.97;4971248;28;19910;-53
2023/11/13 07:21:41;;;;;;;;;;;13.10;73.60;;;8.93;100.00;95249.78;4965791;28;19918;-52
2023/11/13 07:24:12;;;;;;;;;;;13.20;73.70;;;8.98;100.00;95260.41;4971486;28;19914;-51
2023/11/13 07:26:38;;;;;;;;;;;13.20;73.60;;;9.04;100.00;95261.22;4969858;28;19909;-50
2023/11/13 07:29:04;;;;;;;;;;;13.20;73.60;;;9.10;100.00;95262.03;4970868;28;19918;-53
2023/11/13 07:31:30;;;;;;;;;;;13.30;73.70;;;9.18;100.00;95262.34;4971274;28;19910;-51
2023/11/13 07:33:57;;;;;;;;;;;13.40;73.70;;;9.29;100.00;95257.03;4966665;28;20377;-48
2023/11/13 07:36:26;;;;;;;;;;;13.50;73.70;;;9.37;100.00;95267.94;4971306;28;20402;-51
2023/11/13 07:38:52;;;;;;;;;;;13.60;73.60;;;9.41;100.00;95257.56;4960928;28;19910;-54
2023/11/13 07:41:18;;;;;;;;;;;13.70;73.70;;;9.47;100.00;95267.94;4963041;28;19916;-51
2023/11/13 07:43:45;;;;;;;;;;;13.70;73.50;;;9.51;100.00;95284.16;4968449;28;19913;-51
2023/11/13 07:46:12;;;;;;;;;;;13.80;73.50;;;9.56;100.00;95289.50;4969020;28;19956;-53
2023/11/13 07:48:40;;;;;;;;;;;13.90;73.50;;;9.62;100.00;95298.25;4970952;28;20004;-53
2023/11/13 07:51:07;;;;;;;;;;;14.00;73.40;;;9.71;100.00;95291.34;4968361;28;19910;-48
2023/11/13 07:53:36;;;;;;;;;;;14.10;73.30;;;9.69;100.00;95296.94;4974661;28;19924;-51
2023/11/13 07:56:03;;;;;;;;;;;14.10;73.20;;;9.75;100.00;95297.75;4969818;28;19910;-50
2023/11/13 07:58:28;;;;;;;;;;;14.20;73.30;;;9.75;100.00;95300.41;4974014;28;20004;-50
2023/11/13 08:00:54;;;;;;;;;;;14.20;73.00;;;9.71;100.00;95297.50;4974577;28;20040;-51
2023/11/13 08:03:23;;;;;;;;;;;14.20;72.90;;;9.75;100.00;95287.13;4969848;28;20004;-53
2023/11/13 08:05:49;;;;;;;;;;;14.30;72.80;;;9.80;100.00;95288.97;4974676;28;19945;-52
2023/11/13 08:08:16;;;;;;;;;;;14.40;72.70;;;9.87;100.00;95300.13;4970900;28;20004;-51
2023/11/13 08:10:46;;;;;;;;;;;14.40;72.60;;;9.90;100.00;95292.44;4974356;28;20379;-50
2023/11/13 08:13:16;;;;;;;;;;;14.50;72.60;;;9.93;100.00;95289.25;4974340;28;19914;-53
2023/11/13 08:15:43;;;;;;;;;;;14.60;72.50;;;9.95;100.00;95289.75;4969926;28;19966;-50
2023/11/13 08:18:14;;;;;;;;;;;14.60;72.40;;;10.01;100.00;95293.22;4973654;28;19955;-50
2023/11/13 08:20:46;;;;;;;;;;;14.60;72.40;;;10.04;100.00;95290.03;4952830;28;19924;-50
2023/11/13 08:23:14;;;;;;;;;;;14.70;72.40;;;10.13;100.00;95291.06;4974033;28;19960;-54
2023/11/13 08:25:50;;;;;;;;;;;14.70;72.40;;;10.15;100.00;95280.97;4972503;28;19945;-54
2023/11/13 08:28:15;;;;;;;;;;;14.80;72.40;;;10.19;100.00;95287.34;4956815;28;19952;-52
2023/11/13 08:30:43;;;;;;;;;;;14.80;72.30;;;10.25;100.00;95279.31;4973927;28;19937;-54
2023/11/13 08:33:10;;;;;;;;;;;14.90;72.30;;;10.34;100.00;95283.88;4970028;28;19913;-53
2023/11/13 08:35:37;;;;;;;;;;;14.90;72.30;;;10.39;100.00;95294.50;4974062;28;20005;-51
2023/11/13 08:38:03;;;;;;;;;;;14.90;72.20;;;10.44;100.00;95298.25;4969881;28;20432;-51
2023/11/13 08:40:29;;;;;;;;;;;15.00;72.10;;;10.51;100.00;95301.41;4966074;28;20009;-53
2023/11/13 08:42:57;;;;;;;;;;;15.00;72.10;;;10.55;100.00;95300.59;4973893;28;19910;-49
2023/11/13 08:45:24;;;;;;;;;;;15.10;72.10;;;10.63;100.00;95299.25;4969117;28;19916;-52
2023/11/13 08:47:52;;;;;;;;;;;15.10;72.00;;;10.70;100.00;95291.75;4973356;28;19910;-51
2023/11/13 08:50:22;;;;;;;;;;;15.30;71.80;;;10.82;100.00;95296.78;4970081;28;19952;-48
2023/11/13 08:52:49;;;;;;;;;;;15.40;71.70;;;10.84;100.00;95290.13;4973716;28;19940;-50
2023/11/13 08:55:17;;;;;;;;;;;15.40;71.60;;;10.93;100.00;95289.53;4973540;28;20388;-49
2023/11/13 08:57:45;;;;;;;;;;;15.50;71.50;;;11.01;100.00;95291.66;4969328;28;19937;-48
2023/11/13 09:00:19;;;;;;;;;;;15.50;71.30;;;11.08;100.00;95292.13;4973342;28;19916;-52
2023/11/13 09:02:58;;;;;;;;;;;15.60;71.20;;;11.14;100.00;95293.72;4968341;28;20022;-48
2023/11/13 09:05:26;;;;;;;;;;;15.60;71.10;;;11.19;100.00;95288.34;4956079;28;19910;-48
2023/11/13 09:07:57;;;;;;;;;;;15.60;71.00;;;11.20;100.00;95283.81;4971215;28;20008;-49
2023/11/13 09:10:26;;;;;;;;;;;15.70;70.90;;;11.26;100.00;95280.84;4973241;28;19916;-51
2023/11/13 09:13:00;;;;;;;;;;;15.70;70.80;;;11.29;100.00;95274.97;4973417;28;19921;-52
2023/11/13 09:15:29;;;;;;;;;;;15.80;70.70;;;11.39;100.00;95278.63;4968836;28;19910;-48
2023/11/13 09:17:58;;;;;;;;;;;15.80;70.50;;;11.44;100.00;95274.06;4972812;28;19985;-52
2023/11/13 09:20:24;;;;;;;;;;;15.90;70.40;;;11.47;100.00;95280.69;4952155;28;19928;-49
2023/11/13 09:22:52;;;;;;;;;;;15.90;70.90;;;11.53;100.00;95283.09;4972800;28;19970;-52
2023/11/13 09:25:19;;;;;;;;;;;15.90;70.10;;;11.52;100.00;95278.81;4973037;28;19917;-54
2023/11/13 09:27:50;;;;;;;;;;;15.90;70.10;;;11.53;100.00;95279.59;4968742;28;19916;-50
2023/11/13 09:30:20;;;;;;;;;;;15.90;70.10;;;11.48;100.00;95276.97;4972934;28;19910;-54
2023/11/13 09:32:48;;;;;;;;;;;15.90;69.90;;;11.29;100.00;95272.28;4969266;28;20376;-49
2023/11/13 09:35:29;;;;;;;;;;;15.80;69.70;;;11.04;100.00;95269.78;4972782;28;20047;-51
2023/11/13 09:37:58;;;;;;;;;;;15.80;69.50;;;10.88;100.00;95279.72;4969097;28;20543;-49
2023/11/13 09:40:34;;;;;;;;;;;15.70;69.30;;;10.75;100.00;95270.44;4966249;28;20012;-50
2023/11/13 09:43:36;;;;;;;;;;;15.60;69.20;;;10.67;100.00;95264.88;4972868;28;19909;-49
2023/11/13 09:46:08;;;;;;;;;;;15.50;69.20;;;10.60;100.00;95262.50;4937254;28;19909;-50
2023/11/13 09:48:49;;;;;;;;;;;15.40;69.30;;;10.54;100.00;95264.38;4970510;28;19976;-52
2023/11/13 09:51:19;;;;;;;;;;;15.30;69.30;;;10.45;100.00;95258.03;4967363;28;19910;-51
2023/11/13 09:53:49;;;;;;;;;;;15.20;69.50;;;10.27;100.00;95267.38;4972203;28;19920;-49
2023/11/13 09:56:17;;;;;;;;;;;15.20;69.50;;;10.23;100.00;95254.84;4951110;28;19910;-54
2023/11/13 09:58:44;;;;;;;;;;;15.10;69.50;;;10.10;100.00;95261.53;4954454;28;19914;-54
2023/11/13 10:01:14;;;;;;;;;;;15.10;69.50;;;10.13;100.00;95248.50;4971121;28;19936;-51
2023/11/13 10:03:40;;;;;;;;;;;15.10;69.60;;;10.02;100.00;95248.78;4950862;28;20002;-51
2023/11/13 10:06:13;;;;;;;;;;;15.00;69.50;;;10.06;100.00;95247.16;4972299;28;19910;-51
2023/11/13 10:08:44;;;;;;;;;;;15.00;69.60;;;10.09;100.00;95247.44;4958885;28;19921;-50
2023/11/13 10:11:12;;;;;;;;;;;14.90;69.60;;;10.12;100.00;95254.06;4958150;28;20450;-53
2023/11/13 10:13:38;;;;;;;;;;;14.90;69.80;;;10.08;100.00;95256.47;4957424;28;19929;-54
2023/11/13 10:16:18;;;;;;;;;;;14.90;69.90;;;10.07;100.00;95243.44;4958191;28;19917;-48
2023/11/13 10:18:46;;;;;;;;;;;14.80;69.90;;;10.08;100.00;95235.19;4957211;28;19921;-51
2023/11/13 10:21:35;;;;;;;;;;;14.80;70.00;;;10.08;100.00;95237.84;4965112;28;19922;-53
2023/11/13 10:24:23;;;;;;;;;;;14.80;70.10;;;10.08;100.00;95239.72;4954602;28;19917;-50
2023/11/13 10:26:55;;;;;;;;;;;14.80;70.20;;;9.94;100.00;95237.63;4966735;28;20004;-53
2023/11/13 10:29:30;;;;;;;;;;;14.70;70.10;;;9.99;100.00;95214.72;4971413;28;19917;-54
2023/11/13 10:32:01;;;;;;;;;;;14.70;70.10;;;9.98;100.00;95210.47;4969096;28;19909;-50
2023/11/13 10:34:49;;;;;;;;;;;14.70;70.10;;;9.92;100.00;95215.78;4958901;28;19952;-50
2023/11/13 10:37:16;;;;;;;;;;;14.70;70.10;;;9.95;100.00;95206.47;4970340;28;19909;-49
2023/11/13 10:39:43;;;;;;;;;;;14.70;70.00;;;9.93;100.00;95200.63;4969499;28;20349;-52
2023/11/13 10:42:25;;;;;;;;;;;14.70;70.10;;;9.96;100.00;95192.91;4971765;28;19910;-52
2023/11/13 10:44:51;;;;;;;;;;;14.70;70.10;;;9.94;100.00;95183.59;4968596;28;20281;-51
2023/11/13 10:47:33;;;;;;;;;;;14.70;70.10;;;9.97;100.00;95180.41;4971981;28;20448;-49
2023/11/13 10:50:00;;;;;;;;;;;14.80;70.10;;;9.98;100.00;95186.53;4968470;28;19913;-54
2023/11/13 10:52:28;;;;;;;;;;;14.80;70.00;;;10.04;100.00;95188.91;4963932;28;19960;-49
2023/11/13 10:55:01;;;;;;;;;;;14.90;70.00;;;10.07;100.00;95187.56;4971617;28;19952;-50
2023/11/13 10:57:28;;;;;;;;;;;14.90;70.00;;;10.12;100.00;95182.22;4964119;28;20009;-50
2023/11/13 10:59:56;;;;;;;;;;;15.00;70.00;;;10.17;100.00;95190.97;4971173;28;20460;-50
2023/11/13 11:02:40;;;;;;;;;;;15.10;70.00;;;10.32;100.00;95186.72;4968252;28;20316;-51
2023/11/13 11:05:26;;;;;;;;;;;15.20;70.10;;;10.41;100.00;95182.44;4971885;28;19910;-50
2023/11/13 11:07:55;;;;;;;;;;;15.20;70.10;;;10.49;100.00;95168.53;4969639;28;19917;-50
2023/11/13 11:10:25;;;;;;;;;;;15.30;70.90;;;10.53;100.00;95179.41;4970769;28;20029;-49
2023/11/13 11:13:03;;;;;;;;;;;15.40;70.10;;;10.53;100.00;95195.41;4971573;28;19976;-49
2023/11/13 11:16:15;;;;;;;;;;;15.50;70.00;;;10.60;100.00;95180.72;4947026;28;20348;-49